sensor_id;sensor_type;location;lat;lon;timestamp;pressure;altitude;pressure_sealevel;temperature;humidity
54876;BME280;40764;48.472;8.166;2023-03-19T00:01:42;97960.59;;;9.50;75.80
54876;BME280;40764;48.472;8.166;2023-03-19T00:07:43;97973.78;;;9.43;75.87
54876;BME280;40764;48.472;8.166;2023-03-19T00:13:44;97970.97;;;9.48;75.75
54876;BME280;40764;48.472;8.166;2023-03-19T00:19:44;97979.69;;;9.50;75.58
54876;BME280;40764;48.472;8.166;2023-03-19T00:25:45;97993.91;;;9.28;76.72
54876;BME280;40764;48.472;8.166;2023-03-19T00:31:45;97996.63;;;9.28;77.22
54876;BME280;40764;48.472;8.166;2023-03-19T00:37:46;97998.53;;;9.28;77.03
54876;BME280;40764;48.472;8.166;2023-03-19T00:43:51;98004.31;;;9.21;77.56
54876;BME280;40764;48.472;8.166;2023-03-19T00:49:52;98013.97;;;9.38;77.03
54876;BME280;40764;48.472;8.166;2023-03-19T00:55:52;98019.41;;;9.38;76.66
54876;BME280;40764;48.472;8.166;2023-03-19T01:01:52;98017.16;;;9.21;77.08
54876;BME280;40764;48.472;8.166;2023-03-19T01:07:53;98022.78;;;9.06;78.20
54876;BME280;40764;48.472;8.166;2023-03-19T01:13:53;98017.50;;;8.90;78.72
54876;BME280;40764;48.472;8.166;2023-03-19T01:19:53;98015.22;;;8.74;79.58
54876;BME280;40764;48.472;8.166;2023-03-19T01:25:54;98011.94;;;8.77;79.93
54876;BME280;40764;48.472;8.166;2023-03-19T01:31:56;98027.28;;;8.91;79.44
54876;BME280;40764;48.472;8.166;2023-03-19T01:37:56;98014.72;;;8.72;80.60
54876;BME280;40764;48.472;8.166;2023-03-19T01:43:56;98009.75;;;9.03;79.54
54876;BME280;40764;48.472;8.166;2023-03-19T01:49:57;98017.72;;;8.94;80.18
54876;BME280;40764;48.472;8.166;2023-03-19T01:56:31;98024.28;;;8.93;79.96
54876;BME280;40764;48.472;8.166;2023-03-19T02:02:33;98024.56;;;8.91;79.90
54876;BME280;40764;48.472;8.166;2023-03-19T02:08:36;98013.13;;;8.89;81.17
54876;BME280;40764;48.472;8.166;2023-03-19T02:14:37;98006.66;;;8.85;82.14
54876;BME280;40764;48.472;8.166;2023-03-19T02:26:38;98003.81;;;8.95;84.40
54876;BME280;40764;48.472;8.166;2023-03-19T02:32:40;97997.59;;;8.90;84.09
54876;BME280;40764;48.472;8.166;2023-03-19T02:38:41;98005.31;;;8.83;86.06
54876;BME280;40764;48.472;8.166;2023-03-19T02:44:44;98005.47;;;8.91;85.28
54876;BME280;40764;48.472;8.166;2023-03-19T02:50:45;98015.00;;;8.94;86.00
54876;BME280;40764;48.472;8.166;2023-03-19T02:56:45;98010.03;;;9.01;85.90
54876;BME280;40764;48.472;8.166;2023-03-19T03:02:46;98015.50;;;9.01;85.25
54876;BME280;40764;48.472;8.166;2023-03-19T03:08:46;98015.78;;;8.99;85.62
54876;BME280;40764;48.472;8.166;2023-03-19T03:14:46;98018.88;;;8.88;86.58
54876;BME280;40764;48.472;8.166;2023-03-19T03:20:47;98020.72;;;8.97;86.21
54876;BME280;40764;48.472;8.166;2023-03-19T03:26:48;98017.56;;;8.85;87.10
54876;BME280;40764;48.472;8.166;2023-03-19T03:32:48;98018.81;;;8.93;86.99
54876;BME280;40764;48.472;8.166;2023-03-19T03:38:48;98020.00;;;8.87;87.09
54876;BME280;40764;48.472;8.166;2023-03-19T03:44:49;98032.84;;;9.10;86.58
54876;BME280;40764;48.472;8.166;2023-03-19T03:50:49;98028.31;;;9.00;86.72
54876;BME280;40764;48.472;8.166;2023-03-19T03:56:50;98028.22;;;8.82;88.40
54876;BME280;40764;48.472;8.166;2023-03-19T04:02:51;98030.66;;;8.83;88.67
54876;BME280;40764;48.472;8.166;2023-03-19T04:08:52;98040.91;;;8.91;88.61
54876;BME280;40764;48.472;8.166;2023-03-19T04:14:52;98037.69;;;8.89;89.07
54876;BME280;40764;48.472;8.166;2023-03-19T04:20:53;98040.34;;;8.94;88.82
54876;BME280;40764;48.472;8.166;2023-03-19T04:26:53;98048.22;;;8.96;88.97
54876;BME280;40764;48.472;8.166;2023-03-19T04:32:53;98043.88;;;8.95;89.32
54876;BME280;40764;48.472;8.166;2023-03-19T04:38:54;98046.94;;;8.88;88.97
54876;BME280;40764;48.472;8.166;2023-03-19T04:44:54;98052.34;;;8.93;89.60
54876;BME280;40764;48.472;8.166;2023-03-19T04:50:55;98057.09;;;9.12;88.88
54876;BME280;40764;48.472;8.166;2023-03-19T04:56:56;98061.31;;;8.99;89.85
54876;BME280;40764;48.472;8.166;2023-03-19T05:02:56;98068.28;;;8.81;89.63
54876;BME280;40764;48.472;8.166;2023-03-19T05:08:57;98058.63;;;8.65;91.51
54876;BME280;40764;48.472;8.166;2023-03-19T05:14:57;98057.03;;;8.88;91.33
54876;BME280;40764;48.472;8.166;2023-03-19T05:20:58;98062.97;;;8.95;90.13
54876;BME280;40764;48.472;8.166;2023-03-19T05:26:58;98073.06;;;8.94;90.82
54876;BME280;40764;48.472;8.166;2023-03-19T05:32:59;98075.94;;;8.79;90.95
54876;BME280;40764;48.472;8.166;2023-03-19T05:39:00;98067.78;;;8.79;91.99
54876;BME280;40764;48.472;8.166;2023-03-19T05:45:01;98080.59;;;8.79;92.56
54876;BME280;40764;48.472;8.166;2023-03-19T05:51:03;98078.84;;;8.88;91.72
54876;BME280;40764;48.472;8.166;2023-03-19T05:57:04;98084.06;;;8.84;92.45
54876;BME280;40764;48.472;8.166;2023-03-19T06:03:05;98095.78;;;8.85;92.75
54876;BME280;40764;48.472;8.166;2023-03-19T06:09:05;98096.41;;;8.77;93.18
54876;BME280;40764;48.472;8.166;2023-03-19T06:15:06;98088.72;;;8.84;93.21
54876;BME280;40764;48.472;8.166;2023-03-19T06:21:06;98081.72;;;9.02;91.99
54876;BME280;40764;48.472;8.166;2023-03-19T06:27:07;98085.56;;;9.24;90.38
54876;BME280;40764;48.472;8.166;2023-03-19T06:33:07;98086.63;;;9.28;89.82
54876;BME280;40764;48.472;8.166;2023-03-19T06:39:08;98086.06;;;9.31;89.49
54876;BME280;40764;48.472;8.166;2023-03-19T06:45:09;98087.63;;;9.38;89.76
54876;BME280;40764;48.472;8.166;2023-03-19T06:51:09;98098.47;;;9.43;89.47
54876;BME280;40764;48.472;8.166;2023-03-19T06:57:10;98097.72;;;9.37;89.80
54876;BME280;40764;48.472;8.166;2023-03-19T07:03:10;98094.19;;;9.60;89.81
54876;BME280;40764;48.472;8.166;2023-03-19T07:09:11;98094.91;;;10.09;87.02
54876;BME280;40764;48.472;8.166;2023-03-19T07:15:12;98096.81;;;10.08;86.49
54876;BME280;40764;48.472;8.166;2023-03-19T07:21:12;98102.25;;;10.32;85.49
54876;BME280;40764;48.472;8.166;2023-03-19T07:27:12;98106.13;;;10.64;84.29
54876;BME280;40764;48.472;8.166;2023-03-19T07:33:13;98096.78;;;11.16;76.99
54876;BME280;40764;48.472;8.166;2023-03-19T07:39:13;98105.91;;;11.25;78.15
54876;BME280;40764;48.472;8.166;2023-03-19T07:45:13;98106.13;;;11.42;77.34
54876;BME280;40764;48.472;8.166;2023-03-19T07:51:14;98107.44;;;11.45;77.92
54876;BME280;40764;48.472;8.166;2023-03-19T07:57:15;98101.38;;;11.75;75.20
54876;BME280;40764;48.472;8.166;2023-03-19T08:03:15;98112.75;;;11.96;73.48
54876;BME280;40764;48.472;8.166;2023-03-19T08:09:16;98108.25;;;12.50;68.05
54876;BME280;40764;48.472;8.166;2023-03-19T08:15:16;98115.25;;;13.01;61.48
54876;BME280;40764;48.472;8.166;2023-03-19T08:21:17;98115.63;;;13.30;60.42
54876;BME280;40764;48.472;8.166;2023-03-19T08:27:17;98119.19;;;13.31;56.84
54876;BME280;40764;48.472;8.166;2023-03-19T08:33:17;98121.13;;;13.30;57.32
54876;BME280;40764;48.472;8.166;2023-03-19T08:39:18;98112.22;;;13.64;56.74
54876;BME280;40764;48.472;8.166;2023-03-19T08:45:18;98117.19;;;14.02;54.93
54876;BME280;40764;48.472;8.166;2023-03-19T08:51:19;98107.22;;;14.32;54.20
54876;BME280;40764;48.472;8.166;2023-03-19T08:57:20;98110.56;;;14.12;54.64
54876;BME280;40764;48.472;8.166;2023-03-19T09:03:20;98112.72;;;14.32;53.71
54876;BME280;40764;48.472;8.166;2023-03-19T09:09:22;98101.44;;;14.51;53.46
54876;BME280;40764;48.472;8.166;2023-03-19T09:15:23;98110.19;;;14.62;53.19
54876;BME280;40764;48.472;8.166;2023-03-19T09:21:24;98118.75;;;14.86;53.18
54876;BME280;40764;48.472;8.166;2023-03-19T09:27:24;98118.28;;;14.58;55.01
54876;BME280;40764;48.472;8.166;2023-03-19T09:33:24;98123.78;;;14.58;53.91
54876;BME280;40764;48.472;8.166;2023-03-19T09:39:25;98127.00;;;14.60;54.57
54876;BME280;40764;48.472;8.166;2023-03-19T09:45:26;98120.03;;;14.63;53.55
54876;BME280;40764;48.472;8.166;2023-03-19T09:51:35;98121.19;;;14.79;53.08
54876;BME280;40764;48.472;8.166;2023-03-19T09:57:38;98120.66;;;14.94;53.78
54876;BME280;40764;48.472;8.166;2023-03-19T10:16:38;98129.69;;;15.29;53.82
54876;BME280;40764;48.472;8.166;2023-03-19T10:22:44;98128.25;;;15.14;54.79
54876;BME280;40764;48.472;8.166;2023-03-19T10:29:03;98132.31;;;15.17;54.19
54876;BME280;40764;48.472;8.166;2023-03-19T10:35:15;98126.31;;;15.15;53.82
54876;BME280;40764;48.472;8.166;2023-03-19T10:41:49;98126.59;;;15.31;52.97
54876;BME280;40764;48.472;8.166;2023-03-19T10:47:54;98128.63;;;15.68;53.69
54876;BME280;40764;48.472;8.166;2023-03-19T10:53:59;98130.53;;;15.76;52.11
54876;BME280;40764;48.472;8.166;2023-03-19T11:00:05;98132.34;;;15.72;52.79
54876;BME280;40764;48.472;8.166;2023-03-19T11:12:34;98128.50;;;15.47;52.20
54876;BME280;40764;48.472;8.166;2023-03-19T11:18:38;98137.78;;;15.34;54.10
54876;BME280;40764;48.472;8.166;2023-03-19T11:24:40;98136.47;;;15.40;53.92
54876;BME280;40764;48.472;8.166;2023-03-19T11:37:49;98143.91;;;15.40;55.29
54876;BME280;40764;48.472;8.166;2023-03-19T11:43:52;98135.97;;;15.47;54.33
54876;BME280;40764;48.472;8.166;2023-03-19T11:56:49;98121.66;;;15.71;55.29
54876;BME280;40764;48.472;8.166;2023-03-19T12:03:26;98112.41;;;16.05;55.35
54876;BME280;40764;48.472;8.166;2023-03-19T12:09:54;98117.28;;;15.70;54.80
54876;BME280;40764;48.472;8.166;2023-03-19T12:22:29;98115.88;;;15.46;55.69
54876;BME280;40764;48.472;8.166;2023-03-19T12:28:41;98116.28;;;16.33;55.26
54876;BME280;40764;48.472;8.166;2023-03-19T12:35:08;98106.47;;;17.19;51.29
54876;BME280;40764;48.472;8.166;2023-03-19T12:41:24;98098.47;;;17.06;51.04
54876;BME280;40764;48.472;8.166;2023-03-19T12:47:35;98097.22;;;17.36;51.71
54876;BME280;40764;48.472;8.166;2023-03-19T12:59:47;98087.50;;;16.85;51.33
54876;BME280;40764;48.472;8.166;2023-03-19T13:06:05;98081.47;;;15.99;54.15
54876;BME280;40764;48.472;8.166;2023-03-19T13:12:22;98082.63;;;15.60;59.57
54876;BME280;40764;48.472;8.166;2023-03-19T13:18:31;98085.06;;;15.06;61.39
54876;BME280;40764;48.472;8.166;2023-03-19T13:24:37;98086.63;;;15.16;61.03
54876;BME280;40764;48.472;8.166;2023-03-19T13:30:38;98090.69;;;15.01;62.38
54876;BME280;40764;48.472;8.166;2023-03-19T13:36:39;98091.72;;;14.45;68.73
54876;BME280;40764;48.472;8.166;2023-03-19T13:42:40;98089.09;;;14.22;71.59
54876;BME280;40764;48.472;8.166;2023-03-19T13:54:45;98083.25;;;15.02;74.27
54876;BME280;40764;48.472;8.166;2023-03-19T14:00:56;98079.41;;;14.85;79.77
54876;BME280;40764;48.472;8.166;2023-03-19T14:07:09;98077.88;;;15.23;73.02
54876;BME280;40764;48.472;8.166;2023-03-19T14:13:19;98068.03;;;15.13;67.95
54876;BME280;40764;48.472;8.166;2023-03-19T14:19:22;98071.16;;;14.85;68.69
54876;BME280;40764;48.472;8.166;2023-03-19T14:25:57;98071.63;;;14.87;67.81
54876;BME280;40764;48.472;8.166;2023-03-19T14:32:06;98076.69;;;15.41;63.91
54876;BME280;40764;48.472;8.166;2023-03-19T14:38:31;98076.84;;;14.80;63.63
54876;BME280;40764;48.472;8.166;2023-03-19T14:57:33;98078.19;;;13.83;69.48
54876;BME280;40764;48.472;8.166;2023-03-19T15:03:36;98083.03;;;13.86;69.73
54876;BME280;40764;48.472;8.166;2023-03-19T15:09:37;98089.72;;;14.02;68.18
54876;BME280;40764;48.472;8.166;2023-03-19T15:15:47;98092.09;;;13.38;77.02
54876;BME280;40764;48.472;8.166;2023-03-19T15:22:05;98086.53;;;12.76;84.13
54876;BME280;40764;48.472;8.166;2023-03-19T15:28:13;98099.22;;;12.50;89.45
54876;BME280;40764;48.472;8.166;2023-03-19T15:34:21;98144.03;;;12.45;91.64
54876;BME280;40764;48.472;8.166;2023-03-19T15:40:23;98140.50;;;12.31;91.29
54876;BME280;40764;48.472;8.166;2023-03-19T15:46:29;98145.75;;;13.22;88.70
54876;BME280;40764;48.472;8.166;2023-03-19T15:52:34;98141.66;;;12.52;91.50
54876;BME280;40764;48.472;8.166;2023-03-19T15:58:43;98140.31;;;12.27;97.18
54876;BME280;40764;48.472;8.166;2023-03-19T16:04:46;98155.81;;;12.68;98.81
54876;BME280;40764;48.472;8.166;2023-03-19T16:10:47;98163.53;;;12.30;98.78
54876;BME280;40764;48.472;8.166;2023-03-19T16:16:48;98153.69;;;12.65;98.69
54876;BME280;40764;48.472;8.166;2023-03-19T16:22:54;98159.84;;;12.84;96.62
54876;BME280;40764;48.472;8.166;2023-03-19T16:29:21;98163.94;;;12.37;100.00
54876;BME280;40764;48.472;8.166;2023-03-19T16:35:23;98169.84;;;12.66;99.33
54876;BME280;40764;48.472;8.166;2023-03-19T16:41:30;98176.50;;;12.38;99.40
54876;BME280;40764;48.472;8.166;2023-03-19T16:47:31;98171.75;;;13.02;98.68
54876;BME280;40764;48.472;8.166;2023-03-19T16:53:31;98172.75;;;12.34;99.31
54876;BME280;40764;48.472;8.166;2023-03-19T16:59:32;98178.28;;;12.20;100.00
54876;BME280;40764;48.472;8.166;2023-03-19T17:05:32;98180.00;;;12.16;100.00
54876;BME280;40764;48.472;8.166;2023-03-19T17:11:34;98187.81;;;11.95;100.00
54876;BME280;40764;48.472;8.166;2023-03-19T17:17:37;98193.63;;;11.47;100.00
54876;BME280;40764;48.472;8.166;2023-03-19T17:23:38;98198.34;;;11.28;100.00
54876;BME280;40764;48.472;8.166;2023-03-19T17:29:41;98203.72;;;11.33;100.00
54876;BME280;40764;48.472;8.166;2023-03-19T17:35:41;98215.94;;;11.22;100.00
54876;BME280;40764;48.472;8.166;2023-03-19T17:41:42;98222.28;;;10.85;100.00
54876;BME280;40764;48.472;8.166;2023-03-19T17:47:45;98234.19;;;10.75;100.00
54876;BME280;40764;48.472;8.166;2023-03-19T17:53:50;98233.50;;;10.46;100.00
54876;BME280;40764;48.472;8.166;2023-03-19T17:59:51;98240.16;;;10.59;100.00
54876;BME280;40764;48.472;8.166;2023-03-19T18:05:52;98244.84;;;10.77;100.00
54876;BME280;40764;48.472;8.166;2023-03-19T18:11:53;98243.19;;;10.57;100.00
54876;BME280;40764;48.472;8.166;2023-03-19T18:17:56;98250.13;;;10.49;100.00
54876;BME280;40764;48.472;8.166;2023-03-19T18:23:57;98255.88;;;10.48;100.00
54876;BME280;40764;48.472;8.166;2023-03-19T18:29:57;98293.34;;;10.47;100.00
54876;BME280;40764;48.472;8.166;2023-03-19T18:35:58;98305.41;;;10.65;100.00
54876;BME280;40764;48.472;8.166;2023-03-19T18:41:58;98313.88;;;10.64;98.47
54876;BME280;40764;48.472;8.166;2023-03-19T18:47:58;98342.53;;;10.47;97.38
54876;BME280;40764;48.472;8.166;2023-03-19T18:53:59;98342.75;;;10.27;97.28
54876;BME280;40764;48.472;8.166;2023-03-19T19:00:00;98340.19;;;10.07;99.36
54876;BME280;40764;48.472;8.166;2023-03-19T19:06:00;98354.53;;;9.93;100.00
54876;BME280;40764;48.472;8.166;2023-03-19T19:12:01;98357.19;;;9.99;100.00
54876;BME280;40764;48.472;8.166;2023-03-19T19:18:13;98359.81;;;9.85;100.00
54876;BME280;40764;48.472;8.166;2023-03-19T19:24:14;98350.75;;;9.55;100.00
54876;BME280;40764;48.472;8.166;2023-03-19T19:30:20;98359.16;;;9.64;100.00
54876;BME280;40764;48.472;8.166;2023-03-19T19:36:22;98366.75;;;9.67;100.00
54876;BME280;40764;48.472;8.166;2023-03-19T19:42:23;98360.97;;;9.74;100.00
54876;BME280;40764;48.472;8.166;2023-03-19T19:48:25;98363.22;;;9.67;100.00
54876;BME280;40764;48.472;8.166;2023-03-19T19:54:26;98369.81;;;9.60;100.00
54876;BME280;40764;48.472;8.166;2023-03-19T20:00:28;98367.91;;;9.61;100.00
54876;BME280;40764;48.472;8.166;2023-03-19T20:06:29;98365.03;;;9.42;100.00
54876;BME280;40764;48.472;8.166;2023-03-19T20:12:31;98371.91;;;9.35;100.00
54876;BME280;40764;48.472;8.166;2023-03-19T20:18:32;98380.31;;;9.43;100.00
54876;BME280;40764;48.472;8.166;2023-03-19T20:24:34;98396.31;;;9.60;100.00
54876;BME280;40764;48.472;8.166;2023-03-19T20:30:36;98403.72;;;9.49;100.00
54876;BME280;40764;48.472;8.166;2023-03-19T20:36:37;98397.16;;;9.11;100.00
54876;BME280;40764;48.472;8.166;2023-03-19T20:42:39;98404.03;;;8.93;100.00
54876;BME280;40764;48.472;8.166;2023-03-19T20:48:40;98407.03;;;8.92;100.00
54876;BME280;40764;48.472;8.166;2023-03-19T20:54:41;98411.66;;;9.02;100.00
54876;BME280;40764;48.472;8.166;2023-03-19T21:00:42;98428.88;;;8.87;100.00
54876;BME280;40764;48.472;8.166;2023-03-19T21:06:42;98434.84;;;8.99;100.00
54876;BME280;40764;48.472;8.166;2023-03-19T21:12:42;98444.13;;;8.93;100.00
54876;BME280;40764;48.472;8.166;2023-03-19T21:18:44;98449.53;;;9.08;100.00
54876;BME280;40764;48.472;8.166;2023-03-19T21:24:45;98458.09;;;8.76;100.00
54876;BME280;40764;48.472;8.166;2023-03-19T21:30:46;98458.59;;;8.83;100.00
54876;BME280;40764;48.472;8.166;2023-03-19T21:36:46;98468.59;;;9.13;100.00
54876;BME280;40764;48.472;8.166;2023-03-19T21:42:49;98469.16;;;9.05;100.00
54876;BME280;40764;48.472;8.166;2023-03-19T21:48:51;98478.97;;;9.11;100.00
54876;BME280;40764;48.472;8.166;2023-03-19T21:54:52;98475.78;;;8.84;100.00
54876;BME280;40764;48.472;8.166;2023-03-19T22:00:52;98481.47;;;8.92;100.00
54876;BME280;40764;48.472;8.166;2023-03-19T22:06:53;98495.38;;;8.91;100.00
54876;BME280;40764;48.472;8.166;2023-03-19T22:12:53;98488.28;;;8.95;100.00
54876;BME280;40764;48.472;8.166;2023-03-19T22:18:53;98489.88;;;9.06;100.00
54876;BME280;40764;48.472;8.166;2023-03-19T22:24:54;98500.03;;;8.90;100.00
54876;BME280;40764;48.472;8.166;2023-03-19T22:30:59;98499.47;;;8.98;100.00
54876;BME280;40764;48.472;8.166;2023-03-19T22:37:17;98502.44;;;9.07;100.00
54876;BME280;40764;48.472;8.166;2023-03-19T22:43:32;98494.59;;;8.80;100.00
54876;BME280;40764;48.472;8.166;2023-03-19T22:49:33;98497.53;;;8.94;100.00
54876;BME280;40764;48.472;8.166;2023-03-19T22:55:34;98494.28;;;8.97;100.00
54876;BME280;40764;48.472;8.166;2023-03-19T23:01:39;98492.88;;;9.10;100.00
54876;BME280;40764;48.472;8.166;2023-03-19T23:07:40;98502.97;;;9.09;100.00
54876;BME280;40764;48.472;8.166;2023-03-19T23:13:41;98486.63;;;9.04;100.00
54876;BME280;40764;48.472;8.166;2023-03-19T23:19:41;98488.00;;;9.02;100.00
54876;BME280;40764;48.472;8.166;2023-03-19T23:25:42;98491.81;;;9.00;100.00
54876;BME280;40764;48.472;8.166;2023-03-19T23:31:43;98485.03;;;8.98;100.00
54876;BME280;40764;48.472;8.166;2023-03-19T23:37:44;98484.75;;;8.99;100.00
54876;BME280;40764;48.472;8.166;2023-03-19T23:43:44;98477.94;;;8.92;100.00
54876;BME280;40764;48.472;8.166;2023-03-19T23:49:45;98475.78;;;8.84;100.00
54876;BME280;40764;48.472;8.166;2023-03-19T23:55:47;98482.03;;;8.89;100.00
